Time;durP1;ratioP1;P1;durP2;ratioP2;P2;SDS_P1;SDS_P2;PMS_P1;PMS_P2;Temp;Humidity;BMP_temperature;BMP_pressure;BME280_temperature;BME280_humidity;BME280_pressure;Samples;Min_cycle;Max_cycle;Signal;HPM_P1;HPM_P2
2021/01/02 00:01:15;;;;;;;19.95;10.93;;;5.20;99.90;;;;;;4958499;28;20512;-85
2021/01/02 00:04:00;;;;;;;25.63;11.52;;;5.20;99.90;;;;;;4976248;28;20038;-83
2021/01/02 00:06:31;;;;;;;27.90;12.80;;;5.10;99.90;;;;;;4959985;28;20077;-85
2021/01/02 00:09:10;;;;;;;30.92;12.88;;;5.00;99.90;;;;;;4960947;28;20031;-85
2021/01/02 00:11:59;;;;;;;18.80;11.48;;;5.00;99.90;;;;;;4958575;28;20031;-85
2021/01/02 00:15:09;;;;;;;20.73;10.88;;;5.00;99.90;;;;;;4959162;28;20031;-84
2021/01/02 00:17:49;;;;;;;16.48;9.52;;;5.10;99.90;;;;;;4942981;28;20086;-84
2021/01/02 00:20:41;;;;;;;16.35;9.90;;;5.20;99.90;;;;;;4976871;28;20457;-84
2021/01/02 00:23:34;;;;;;;14.70;8.90;;;5.30;99.90;;;;;;4959234;28;20034;-85
2021/01/02 00:26:11;;;;;;;21.73;10.93;;;5.40;99.90;;;;;;4975943;28;20066;-85
2021/01/02 00:28:42;;;;;;;19.45;10.30;;;5.30;99.90;;;;;;4975846;28;20038;-85
2021/01/02 00:31:45;;;;;;;17.65;8.93;;;5.30;99.90;;;;;;4958545;28;20114;-85
2021/01/02 00:34:49;;;;;;;15.40;8.48;;;5.30;99.90;;;;;;4958611;28;20038;-84
2021/01/02 00:37:29;;;;;;;20.50;9.43;;;5.40;99.90;;;;;;4958395;28;20058;-85
2021/01/02 00:40:04;;;;;;;16.90;7.72;;;5.20;99.90;;;;;;4958736;28;20050;-85
2021/01/02 00:42:33;;;;;;;16.23;8.50;;;5.30;99.90;;;;;;4958416;28;20031;-85
2021/01/02 00:45:00;;;;;;;11.30;6.85;;;5.10;99.90;;;;;;4942534;28;20082;-85
2021/01/02 00:47:27;;;;;;;15.50;8.02;;;5.00;99.90;;;;;;4974627;28;20027;-85
2021/01/02 00:49:57;;;;;;;24.20;10.07;;;4.90;99.90;;;;;;4958329;28;20034;-84
2021/01/02 00:52:45;;;;;;;12.45;6.97;;;4.90;99.90;;;;;;4958043;28;20030;-86
2021/01/02 00:55:25;;;;;;;13.77;7.15;;;5.00;99.90;;;;;;4975721;28;20046;-85
2021/01/02 00:57:57;;;;;;;15.15;7.00;;;5.20;99.90;;;;;;4958253;28;20054;-85
2021/01/02 01:00:30;;;;;;;15.27;6.95;;;5.30;99.90;;;;;;4975167;28;20031;-85
2021/01/02 01:03:33;;;;;;;15.32;6.80;;;5.40;99.90;;;;;;4991781;28;20043;-83
2021/01/02 01:06:03;;;;;;;12.02;5.95;;;5.50;99.90;;;;;;4917096;29;20069;-85
2021/01/02 01:08:32;;;;;;;9.73;5.75;;;5.40;99.90;;;;;;4965362;28;20102;-85
2021/01/02 01:11:02;;;;;;;10.45;5.45;;;5.50;99.90;;;;;;4958035;28;20391;-84
2021/01/02 01:13:27;;;;;;;10.18;5.63;;;5.50;99.90;;;;;;4958093;28;20126;-85
2021/01/02 01:15:53;;;;;;;10.82;6.55;;;5.50;99.90;;;;;;4957925;28;20078;-85
2021/01/02 01:18:32;;;;;;;13.73;7.72;;;5.50;99.90;;;;;;4957842;28;20033;-85
2021/01/02 01:20:59;;;;;;;10.63;5.18;;;5.40;99.90;;;;;;4958241;28;20448;-84
2021/01/02 01:23:35;;;;;;;14.20;5.90;;;5.40;99.90;;;;;;4959138;28;20027;-84
2021/01/02 01:26:34;;;;;;;8.00;5.00;;;5.40;99.90;;;;;;4976724;28;20027;-86
2021/01/02 01:29:01;;;;;;;13.55;6.70;;;5.50;99.90;;;;;;4959029;28;20531;-83
2021/01/02 01:31:46;;;;;;;15.50;6.97;;;5.50;99.90;;;;;;4958824;28;20031;-88
2021/01/02 01:34:20;;;;;;;12.05;5.50;;;5.30;99.90;;;;;;4943939;28;20038;-84
2021/01/02 01:36:47;;;;;;;12.57;6.93;;;5.30;99.90;;;;;;4949746;28;20038;-83
2021/01/02 01:39:14;;;;;;;13.48;6.47;;;5.20;99.90;;;;;;4950082;28;20035;-84
2021/01/02 01:41:45;;;;;;;10.95;5.50;;;5.30;99.90;;;;;;4959554;28;20101;-84
2021/01/02 01:44:10;;;;;;;22.60;8.85;;;5.10;99.90;;;;;;4975147;28;20393;-83
2021/01/02 01:46:54;;;;;;;16.08;7.38;;;5.10;99.90;;;;;;4957555;28;20023;-84
2021/01/02 01:49:32;;;;;;;15.25;8.20;;;5.10;99.90;;;;;;4957646;28;20425;-83
2021/01/02 01:52:11;;;;;;;11.35;6.57;;;5.20;99.90;;;;;;4957574;28;20033;-83
2021/01/02 01:55:06;;;;;;;10.80;6.68;;;5.40;99.90;;;;;;4974447;28;20038;-84
2021/01/02 01:57:40;;;;;;;14.02;6.65;;;5.40;99.90;;;;;;4974620;28;20106;-84
2021/01/02 02:00:11;;;;;;;12.70;7.03;;;5.30;99.90;;;;;;4975005;28;20027;-84
2021/01/02 02:02:46;;;;;;;15.05;7.00;;;5.40;99.90;;;;;;4956959;28;20381;-83
2021/01/02 02:05:16;;;;;;;13.93;7.32;;;5.50;99.90;;;;;;4956989;28;20070;-84
2021/01/02 02:07:45;;;;;;;15.23;7.53;;;5.60;99.90;;;;;;4974062;28;20085;-84
2021/01/02 02:10:26;;;;;;;9.52;6.50;;;5.50;99.90;;;;;;4957291;28;20380;-83
2021/01/02 02:12:57;;;;;;;14.93;8.13;;;5.60;99.90;;;;;;4956713;28;20066;-84
2021/01/02 02:15:25;;;;;;;12.82;7.30;;;5.70;99.90;;;;;;4974318;28;20081;-84
2021/01/02 02:18:06;;;;;;;11.60;6.25;;;5.70;99.90;;;;;;4974267;28;20033;-85
2021/01/02 02:20:33;;;;;;;15.00;6.85;;;5.60;99.90;;;;;;4937494;29;20082;-90
2021/01/02 02:23:07;;;;;;;12.10;6.38;;;5.70;99.90;;;;;;4953550;29;20031;-85
2021/01/02 02:26:06;;;;;;;14.25;6.40;;;5.70;99.90;;;;;;4957566;28;20118;-90
2021/01/02 02:28:50;;;;;;;16.35;7.70;;;5.70;99.90;;;;;;4949745;29;20049;-86
2021/01/02 02:31:17;;;;;;;14.70;7.80;;;5.60;99.90;;;;;;4958909;29;20038;-85
2021/01/02 02:34:03;;;;;;;18.02;8.88;;;5.50;99.90;;;;;;4958184;29;20031;-85
2021/01/02 02:36:31;;;;;;;15.55;7.30;;;5.20;99.90;;;;;;4956653;29;20073;-84
2021/01/02 02:39:05;;;;;;;12.57;6.40;;;5.20;99.90;;;;;;4959168;28;20035;-84
2021/01/02 02:41:35;;;;;;;13.10;6.73;;;5.30;99.90;;;;;;4958697;28;20094;-84
2021/01/02 02:44:03;;;;;;;9.25;6.60;;;5.40;99.90;;;;;;4958733;29;20350;-84
2021/01/02 02:46:34;;;;;;;10.63;6.65;;;5.50;99.90;;;;;;4959729;29;20027;-83
2021/01/02 02:49:06;;;;;;;13.48;7.05;;;5.40;99.90;;;;;;4959062;28;20034;-83
2021/01/02 02:51:40;;;;;;;11.57;6.57;;;5.50;99.90;;;;;;4957042;29;20059;-83
2021/01/02 02:54:06;;;;;;;14.95;6.32;;;5.40;99.90;;;;;;4957299;29;20041;-84
2021/01/02 02:56:32;;;;;;;21.67;10.75;;;5.40;99.90;;;;;;4941279;29;20130;-84
2021/01/02 02:58:57;;;;;;;14.05;6.68;;;5.30;99.90;;;;;;4956990;29;20516;-84
2021/01/02 03:01:23;;;;;;;12.60;6.45;;;5.20;99.90;;;;;;4956753;28;20036;-84
2021/01/02 03:03:49;;;;;;;12.38;6.15;;;5.30;99.90;;;;;;4957276;29;20098;-84
2021/01/02 03:06:15;;;;;;;16.00;7.75;;;5.30;99.90;;;;;;4957026;29;20077;-84
2021/01/02 03:08:41;;;;;;;11.48;5.78;;;5.30;99.90;;;;;;4956747;29;20376;-84
2021/01/02 03:11:07;;;;;;;13.07;6.40;;;5.30;99.90;;;;;;4925106;29;20039;-84
2021/01/02 03:13:40;;;;;;;12.02;6.07;;;5.30;99.90;;;;;;4940831;29;20130;-84
2021/01/02 03:16:06;;;;;;;13.02;5.68;;;5.30;99.90;;;;;;4941421;29;20042;-84
2021/01/02 03:18:32;;;;;;;11.35;5.70;;;5.30;99.90;;;;;;4925025;29;20393;-84
2021/01/02 03:20:57;;;;;;;11.75;5.72;;;5.30;99.90;;;;;;4939898;29;20773;-84
2021/01/02 03:23:23;;;;;;;15.32;8.05;;;5.20;99.90;;;;;;4955894;29;20031;-84
2021/01/02 03:25:48;;;;;;;10.27;6.22;;;5.10;99.90;;;;;;4940818;28;20496;-84
2021/01/02 03:28:14;;;;;;;10.30;5.65;;;5.00;99.90;;;;;;4924955;29;20041;-84
2021/01/02 03:30:40;;;;;;;13.82;6.43;;;4.80;99.90;;;;;;4958186;29;20031;-86
2021/01/02 03:33:05;;;;;;;9.85;5.32;;;4.90;99.90;;;;;;4944403;29;20035;-83
2021/01/02 03:35:32;;;;;;;9.05;5.35;;;4.90;99.90;;;;;;4940331;28;20028;-85
2021/01/02 03:37:58;;;;;;;12.02;5.75;;;4.90;99.90;;;;;;4956394;28;20074;-84
2021/01/02 03:40:23;;;;;;;14.25;5.35;;;5.00;99.90;;;;;;4956312;28;20063;-83
2021/01/02 03:42:49;;;;;;;11.18;5.15;;;5.00;99.90;;;;;;4956222;29;20059;-84
2021/01/02 03:45:16;;;;;;;11.43;5.55;;;5.00;99.90;;;;;;4940062;29;20506;-83
2021/01/02 03:47:46;;;;;;;12.68;5.30;;;4.90;99.90;;;;;;4956163;28;20050;-86
2021/01/02 03:50:13;;;;;;;11.68;5.22;;;4.90;99.90;;;;;;4956344;29;20392;-85
2021/01/02 03:52:39;;;;;;;9.90;5.35;;;4.90;99.90;;;;;;4940445;29;20039;-85
2021/01/02 03:55:06;;;;;;;10.45;5.05;;;4.90;99.90;;;;;;4940274;29;20054;-83
2021/01/02 03:57:32;;;;;;;10.90;6.22;;;4.90;99.90;;;;;;4940557;29;20041;-84
2021/01/02 03:59:58;;;;;;;10.93;6.80;;;4.80;99.90;;;;;;4957595;28;20027;-83
2021/01/02 04:02:27;;;;;;;8.40;5.03;;;4.80;99.90;;;;;;4940062;29;20054;-84
2021/01/02 04:04:53;;;;;;;11.63;5.68;;;4.90;99.90;;;;;;4955735;29;20034;-84
2021/01/02 04:07:19;;;;;;;11.27;6.75;;;4.90;99.90;;;;;;4956222;29;20030;-85
2021/01/02 04:09:45;;;;;;;13.75;5.35;;;4.80;99.90;;;;;;4955603;29;20020;-85
2021/01/02 04:12:11;;;;;;;11.43;5.60;;;4.90;99.90;;;;;;4969409;28;20019;-83
2021/01/02 04:14:37;;;;;;;10.43;5.30;;;4.90;99.90;;;;;;4971726;29;20035;-85
2021/01/02 04:17:03;;;;;;;10.18;5.20;;;4.80;99.90;;;;;;4957826;28;20380;-84
2021/01/02 04:19:32;;;;;;;10.55;5.60;;;4.90;99.90;;;;;;4956619;28;20038;-83
2021/01/02 04:21:58;;;;;;;14.48;6.22;;;4.90;99.90;;;;;;4939468;29;20497;-83
2021/01/02 04:24:24;;;;;;;10.38;5.57;;;4.90;99.90;;;;;;4955630;29;20108;-83
2021/01/02 04:26:50;;;;;;;9.50;5.30;;;4.70;99.90;;;;;;4939456;29;20039;-85
2021/01/02 04:29:15;;;;;;;12.93;6.40;;;4.70;99.90;;;;;;4940285;28;20031;-84
2021/01/02 04:31:41;;;;;;;16.23;7.03;;;4.70;99.90;;;;;;4939469;29;20035;-84
2021/01/02 04:34:08;;;;;;;8.02;5.25;;;4.80;99.90;;;;;;4938976;29;20056;-84
2021/01/02 04:36:36;;;;;;;9.93;5.75;;;4.80;99.90;;;;;;4956999;28;20027;-84
2021/01/02 04:39:03;;;;;;;11.25;5.80;;;4.80;99.90;;;;;;4956160;28;20042;-84
2021/01/02 04:41:28;;;;;;;8.75;5.50;;;4.80;99.90;;;;;;4955484;29;20473;-83
2021/01/02 04:43:54;;;;;;;9.23;5.50;;;4.80;99.90;;;;;;4955218;29;20031;-84
2021/01/02 04:46:22;;;;;;;8.05;5.22;;;4.80;99.90;;;;;;4956035;28;20027;-84
2021/01/02 04:48:48;;;;;;;10.35;5.30;;;4.80;99.90;;;;;;4955677;28;20020;-86
2021/01/02 04:51:15;;;;;;;11.85;5.68;;;4.80;99.90;;;;;;4954734;29;20027;-83
2021/01/02 04:53:41;;;;;;;9.13;5.63;;;4.80;99.90;;;;;;4955197;28;20051;-83
2021/01/02 04:56:09;;;;;;;8.68;4.60;;;4.70;99.90;;;;;;4938935;28;20161;-83
2021/01/02 04:58:44;;;;;;;9.52;5.47;;;4.80;99.90;;;;;;4938689;29;20038;-83
2021/01/02 05:01:12;;;;;;;11.27;5.20;;;4.90;99.90;;;;;;4950127;29;20038;-84
2021/01/02 05:03:44;;;;;;;10.80;5.55;;;4.90;99.90;;;;;;4955208;29;20050;-84
2021/01/02 05:06:10;;;;;;;11.68;5.70;;;4.90;99.90;;;;;;4939148;29;20050;-84
2021/01/02 05:08:36;;;;;;;9.95;4.93;;;4.90;99.90;;;;;;4956845;28;20027;-84
2021/01/02 05:11:04;;;;;;;11.35;5.45;;;4.90;99.90;;;;;;4955272;28;20054;-83
2021/01/02 05:13:37;;;;;;;9.32;4.88;;;4.90;99.90;;;;;;4955890;29;20461;-83
2021/01/02 05:16:24;;;;;;;9.43;5.10;;;4.90;99.90;;;;;;4956265;29;20035;-84
2021/01/02 05:18:54;;;;;;;6.90;4.50;;;5.00;99.90;;;;;;4955289;29;20050;-83
2021/01/02 05:21:21;;;;;;;13.65;6.68;;;4.90;99.90;;;;;;4954778;29;20146;-83
2021/01/02 05:24:14;;;;;;;14.40;6.68;;;5.00;99.90;;;;;;4955272;29;20118;-83
2021/01/02 05:26:39;;;;;;;13.07;5.78;;;5.00;99.90;;;;;;4956354;29;20028;-84
2021/01/02 05:29:25;;;;;;;11.88;6.30;;;4.80;99.90;;;;;;4956450;28;20106;-82
2021/01/02 05:32:02;;;;;;;13.05;5.70;;;4.80;99.90;;;;;;4958312;29;20170;-83
2021/01/02 05:34:33;;;;;;;11.93;6.53;;;4.90;99.90;;;;;;4955152;29;20118;-85
2021/01/02 05:37:05;;;;;;;13.27;6.25;;;5.00;99.90;;;;;;4954888;29;20496;-84
2021/01/02 05:39:54;;;;;;;14.77;6.53;;;4.90;99.90;;;;;;4954275;29;20034;-83
2021/01/02 05:42:21;;;;;;;13.27;5.97;;;5.00;99.90;;;;;;4939409;29;20035;-83
2021/01/02 05:44:47;;;;;;;11.18;6.47;;;5.00;99.90;;;;;;4937822;29;20039;-85
2021/01/02 05:47:20;;;;;;;14.52;6.68;;;5.00;99.90;;;;;;4954276;29;20035;-84
2021/01/02 05:49:49;;;;;;;16.13;6.28;;;5.00;99.90;;;;;;4954062;29;20023;-84
2021/01/02 05:52:16;;;;;;;18.85;6.93;;;4.90;99.90;;;;;;4953817;29;20061;-84
2021/01/02 05:54:48;;;;;;;13.32;5.75;;;4.90;99.90;;;;;;4953822;29;20035;-84
2021/01/02 05:57:28;;;;;;;13.77;7.47;;;4.90;99.90;;;;;;4954138;29;20041;-84
2021/01/02 05:59:55;;;;;;;12.52;6.20;;;4.80;99.90;;;;;;4953169;29;20082;-83
2021/01/02 06:02:31;;;;;;;12.07;6.10;;;4.80;99.90;;;;;;4955290;28;20035;-83
2021/01/02 06:04:58;;;;;;;12.43;6.60;;;4.80;99.90;;;;;;4953933;28;20035;-84
2021/01/02 06:07:25;;;;;;;17.17;6.38;;;4.80;99.90;;;;;;4954160;29;20106;-84
2021/01/02 06:09:52;;;;;;;13.80;6.03;;;4.90;99.90;;;;;;4954015;28;20365;-84
2021/01/02 06:12:31;;;;;;;10.82;5.68;;;4.80;99.90;;;;;;4955414;28;20041;-84
2021/01/02 06:14:59;;;;;;;16.02;6.22;;;4.70;99.90;;;;;;4955461;28;20063;-86
2021/01/02 06:17:35;;;;;;;25.00;9.75;;;4.80;99.90;;;;;;4953920;29;20035;-83
2021/01/02 06:20:07;;;;;;;13.18;6.28;;;4.60;99.90;;;;;;4956112;28;20118;-84
2021/01/02 06:22:33;;;;;;;10.02;6.57;;;4.50;99.90;;;;;;4974904;28;20114;-84
2021/01/02 06:24:59;;;;;;;12.68;5.57;;;4.50;99.90;;;;;;4957144;28;20056;-85
2021/01/02 06:27:25;;;;;;;15.15;5.82;;;4.60;99.90;;;;;;4957192;28;20027;-84
2021/01/02 06:29:59;;;;;;;11.45;6.15;;;4.60;99.90;;;;;;4957847;28;20536;-84
2021/01/02 06:32:26;;;;;;;13.60;6.35;;;4.60;99.90;;;;;;4957687;28;20105;-84
2021/01/02 06:35:10;;;;;;;13.60;6.97;;;4.60;99.90;;;;;;4957483;28;20039;-84
2021/01/02 06:37:48;;;;;;;11.30;6.15;;;4.60;99.90;;;;;;4974771;28;20027;-84
2021/01/02 06:40:47;;;;;;;12.57;7.32;;;4.60;99.90;;;;;;4974044;28;20022;-84
2021/01/02 06:43:20;;;;;;;12.98;7.00;;;4.70;99.90;;;;;;4956472;28;20027;-84
2021/01/02 06:45:51;;;;;;;14.43;6.05;;;4.80;99.90;;;;;;4957288;28;20034;-84
2021/01/02 06:48:16;;;;;;;14.88;7.78;;;4.80;99.90;;;;;;4968686;28;20027;-82
2021/01/02 06:50:44;;;;;;;12.55;6.68;;;4.90;99.90;;;;;;4970707;28;20069;-84
2021/01/02 06:53:23;;;;;;;11.32;5.93;;;4.80;99.90;;;;;;4941210;28;20030;-84
2021/01/02 06:56:06;;;;;;;10.88;6.70;;;4.90;99.90;;;;;;4957457;28;20469;-83
2021/01/02 06:58:49;;;;;;;21.45;7.25;;;4.90;99.90;;;;;;4956804;28;20142;-84
2021/01/02 07:01:17;;;;;;;12.35;6.38;;;4.90;99.90;;;;;;4973801;28;20062;-82
2021/01/02 07:03:48;;;;;;;15.40;7.82;;;4.90;99.90;;;;;;4957169;28;20027;-84
2021/01/02 07:06:20;;;;;;;19.98;8.98;;;4.90;99.90;;;;;;4973045;28;20153;-84
2021/01/02 07:09:09;;;;;;;14.68;6.78;;;4.90;99.90;;;;;;4940954;28;20472;-84
2021/01/02 07:11:45;;;;;;;17.58;7.55;;;4.90;99.90;;;;;;4959639;28;20030;-83
2021/01/02 07:14:11;;;;;;;11.18;7.38;;;5.00;99.90;;;;;;4960157;28;20388;-84
2021/01/02 07:16:56;;;;;;;11.77;6.78;;;5.10;99.90;;;;;;4962809;28;20326;-83
2021/01/02 07:19:29;;;;;;;15.23;6.55;;;5.00;99.90;;;;;;4961324;28;20074;-84
2021/01/02 07:22:08;;;;;;;12.32;7.53;;;5.00;99.90;;;;;;4959590;28;20436;-83
2021/01/02 07:24:46;;;;;;;15.75;7.15;;;5.00;99.90;;;;;;4992664;28;20092;-83
2021/01/02 07:27:17;;;;;;;13.90;7.60;;;5.00;99.90;;;;;;4961238;28;20090;-84
2021/01/02 07:29:45;;;;;;;20.13;7.25;;;5.00;99.90;;;;;;4962903;28;20034;-84
2021/01/02 07:32:17;;;;;;;14.73;8.02;;;5.00;99.90;;;;;;4978852;28;20134;-84
2021/01/02 07:34:48;;;;;;;16.80;6.75;;;5.00;99.90;;;;;;4962747;28;20074;-83
2021/01/02 07:37:25;;;;;;;12.57;7.13;;;5.00;99.90;;;;;;4960462;28;20027;-84
2021/01/02 07:39:57;;;;;;;15.98;6.70;;;5.10;99.90;;;;;;4961080;28;20085;-84
2021/01/02 07:42:24;;;;;;;14.93;6.03;;;5.10;99.90;;;;;;4961883;28;20034;-84
2021/01/02 07:45:11;;;;;;;14.73;6.82;;;5.00;99.90;;;;;;4960061;28;20229;-84
2021/01/02 07:47:38;;;;;;;15.18;6.78;;;5.00;99.90;;;;;;4959913;28;20082;-84
2021/01/02 07:50:10;;;;;;;15.35;6.68;;;5.00;99.90;;;;;;4975540;28;20125;-84
2021/01/02 07:52:45;;;;;;;11.52;6.30;;;5.00;99.90;;;;;;4976929;28;20472;-84
2021/01/02 07:55:12;;;;;;;12.23;6.80;;;5.00;99.90;;;;;;4959553;28;20039;-84
2021/01/02 07:57:38;;;;;;;12.68;7.20;;;4.90;99.90;;;;;;4959202;28;20022;-84
2021/01/02 08:00:06;;;;;;;14.68;7.20;;;4.90;99.90;;;;;;4976813;28;20038;-84
2021/01/02 08:02:32;;;;;;;19.75;6.65;;;4.90;99.90;;;;;;4943229;28;20499;-83
2021/01/02 08:04:58;;;;;;;19.27;7.03;;;4.80;99.90;;;;;;4959140;28;20460;-84
2021/01/02 08:07:24;;;;;;;14.18;6.57;;;4.80;99.90;;;;;;4974601;28;20043;-84
2021/01/02 08:09:50;;;;;;;15.88;6.35;;;4.80;99.90;;;;;;4958901;28;20034;-84
2021/01/02 08:12:18;;;;;;;12.85;7.60;;;4.80;99.90;;;;;;4942698;28;20035;-85
2021/01/02 08:14:47;;;;;;;14.55;6.70;;;4.40;99.90;;;;;;4958795;28;20042;-85
2021/01/02 08:17:15;;;;;;;33.58;17.08;;;4.60;99.90;;;;;;4959773;28;20027;-85
2021/01/02 08:19:46;;;;;;;29.02;16.60;;;4.60;99.90;;;;;;4960635;28;20038;-84
2021/01/02 08:22:36;;;;;;;28.88;13.73;;;4.70;99.90;;;;;;4958138;28;20047;-85
2021/01/02 08:25:16;;;;;;;27.50;14.30;;;4.70;99.90;;;;;;4958855;28;20126;-84
2021/01/02 08:27:43;;;;;;;23.15;14.18;;;4.70;99.90;;;;;;4959156;28;20023;-85
2021/01/02 08:30:11;;;;;;;24.45;15.32;;;4.60;99.90;;;;;;4958816;28;20022;-84
2021/01/02 08:32:40;;;;;;;27.40;15.20;;;4.60;99.90;;;;;;4942545;28;20121;-83
2021/01/02 08:35:26;;;;;;;31.85;15.88;;;4.70;99.90;;;;;;4958656;28;20027;-84
2021/01/02 08:37:52;;;;;;;32.28;17.83;;;4.70;99.90;;;;;;4975613;28;20045;-84
2021/01/02 08:40:18;;;;;;;28.95;14.38;;;4.60;99.90;;;;;;4975443;28;20392;-84
2021/01/02 08:42:47;;;;;;;32.47;16.20;;;4.70;99.90;;;;;;4942494;28;20034;-85
2021/01/02 08:45:30;;;;;;;58.95;32.65;;;4.80;99.90;;;;;;4958080;28;20023;-85
2021/01/02 08:48:15;;;;;;;38.15;21.80;;;4.90;99.90;;;;;;4975685;28;20108;-85
2021/01/02 08:50:41;;;;;;;25.75;15.73;;;5.00;99.90;;;;;;4959034;28;20026;-85
2021/01/02 08:53:26;;;;;;;29.02;11.80;;;5.20;99.90;;;;;;4958843;28;20074;-84
2021/01/02 08:55:52;;;;;;;;;;;5.20;99.90;;;;;;4959016;28;20090;-85
2021/01/02 08:58:31;;;;;;;20.77;11.60;;;5.30;99.90;;;;;;4975387;28;19910;-85
2021/01/02 09:00:57;;;;;;;18.17;11.02;;;5.30;99.90;;;;;;4975100;28;20048;-85
2021/01/02 09:03:23;;;;;;;21.95;10.52;;;5.30;99.90;;;;;;4957882;28;20456;-85
2021/01/02 09:05:49;;;;;;;22.05;11.25;;;5.30;99.90;;;;;;4941819;28;20076;-85
2021/01/02 09:08:19;;;;;;;26.17;12.77;;;5.20;99.90;;;;;;4957681;28;20054;-88
2021/01/02 09:10:46;;;;;;;22.52;10.75;;;5.20;99.90;;;;;;4957779;28;20026;-85
2021/01/02 09:13:22;;;;;;;17.77;10.02;;;5.10;99.90;;;;;;4957628;28;20482;-84
2021/01/02 09:15:53;;;;;;;24.17;10.00;;;5.20;99.90;;;;;;4975290;28;20034;-83
2021/01/02 09:18:28;;;;;;;22.60;11.30;;;5.30;99.90;;;;;;4974724;28;20492;-85
2021/01/02 09:20:58;;;;;;;19.58;10.77;;;5.30;99.90;;;;;;4958562;28;20492;-85
2021/01/02 09:23:35;;;;;;;20.45;10.23;;;5.30;99.90;;;;;;4971106;28;20019;-85
2021/01/02 09:26:02;;;;;;;21.58;11.43;;;5.20;99.90;;;;;;4959179;28;20027;-83
2021/01/02 09:28:27;;;;;;;19.10;11.40;;;5.00;99.90;;;;;;4960391;28;20030;-87
2021/01/02 09:30:53;;;;;;;19.65;9.60;;;5.20;99.90;;;;;;4943416;28;20494;-87
2021/01/02 09:33:19;;;;;;;23.75;10.30;;;5.20;99.90;;;;;;4974795;28;20053;-85
2021/01/02 09:35:46;;;;;;;24.17;10.13;;;5.30;99.90;;;;;;4958033;28;20038;-85
2021/01/02 09:38:13;;;;;;;21.05;10.05;;;5.30;99.90;;;;;;4958478;28;20023;-85
2021/01/02 09:40:41;;;;;;;22.88;9.00;;;5.40;99.90;;;;;;4942342;28;20035;-85
2021/01/02 09:43:09;;;;;;;17.80;9.18;;;5.40;99.90;;;;;;4975044;28;20038;-85
2021/01/02 09:45:35;;;;;;;19.92;9.18;;;5.40;99.90;;;;;;4990123;28;20114;-86
2021/01/02 09:48:01;;;;;;;16.55;9.02;;;5.50;99.90;;;;;;4973785;28;20062;-85
2021/01/02 09:50:26;;;;;;;21.00;8.27;;;5.50;99.90;;;;;;4941561;28;20030;-85
2021/01/02 09:52:52;;;;;;;21.55;8.48;;;5.50;99.90;;;;;;4973597;28;20047;-85
2021/01/02 09:55:18;;;;;;;19.20;9.65;;;5.50;99.90;;;;;;4941669;28;20130;-84
2021/01/02 09:57:48;;;;;;;23.33;10.13;;;5.50;99.90;;;;;;4957455;28;20110;-85
2021/01/02 10:00:15;;;;;;;16.70;8.57;;;5.60;99.90;;;;;;4957680;28;20027;-85
2021/01/02 10:02:40;;;;;;;17.20;9.55;;;5.60;99.90;;;;;;4957694;28;20090;-85
2021/01/02 10:05:07;;;;;;;17.75;9.23;;;5.70;99.90;;;;;;4957994;28;20476;-86
2021/01/02 10:07:33;;;;;;;23.90;10.85;;;5.70;99.90;;;;;;4957298;28;20038;-85
2021/01/02 10:09:58;;;;;;;17.92;8.50;;;5.60;99.90;;;;;;4957430;28;20042;-85
2021/01/02 10:12:24;;;;;;;15.80;8.05;;;5.70;99.90;;;;;;4941169;28;20058;-85
2021/01/02 10:14:50;;;;;;;14.93;6.85;;;5.80;99.90;;;;;;4958552;28;20042;-85
2021/01/02 10:17:17;;;;;;;15.05;7.63;;;5.80;99.90;;;;;;4958321;28;20073;-85
2021/01/02 10:19:46;;;;;;;14.23;8.02;;;5.90;99.90;;;;;;4974315;28;20035;-85
2021/01/02 10:22:14;;;;;;;23.77;8.82;;;5.90;99.90;;;;;;4989710;28;20082;-85
2021/01/02 10:24:40;;;;;;;21.23;9.43;;;6.00;99.90;;;;;;4977015;28;20039;-85
2021/01/02 10:27:07;;;;;;;28.00;14.75;;;5.90;99.90;;;;;;4961730;28;20030;-85
2021/01/02 10:29:32;;;;;;;32.30;15.57;;;5.80;99.90;;;;;;4959383;28;20030;-84
2021/01/02 10:32:03;;;;;;;31.52;14.82;;;5.90;99.90;;;;;;4959919;28;20034;-84
2021/01/02 10:34:29;;;;;;;17.90;12.40;;;6.00;99.90;;;;;;4974084;28;20449;-89
2021/01/02 10:36:55;;;;;;;21.52;13.20;;;5.90;99.90;;;;;;4955848;28;20045;-86
2021/01/02 10:39:22;;;;;;;24.00;11.25;;;6.00;99.90;;;;;;4974046;28;20023;-86
2021/01/02 10:41:49;;;;;;;24.80;12.25;;;6.20;99.90;;;;;;4956581;28;20031;-85
2021/01/02 10:44:16;;;;;;;23.20;12.63;;;6.30;99.90;;;;;;4957457;28;20469;-85
2021/01/02 10:46:50;;;;;;;20.00;11.20;;;6.30;99.90;;;;;;4960702;28;20118;-85
2021/01/02 10:49:17;;;;;;;23.25;11.82;;;6.30;99.90;;;;;;4945040;28;20142;-85
2021/01/02 10:51:45;;;;;;;18.48;10.65;;;6.10;99.90;;;;;;4977494;28;20093;-85
2021/01/02 10:54:12;;;;;;;23.35;12.13;;;6.20;99.90;;;;;;4946769;28;20125;-85
2021/01/02 10:56:44;;;;;;;31.17;10.95;;;6.10;99.90;;;;;;4983075;28;20457;-85
2021/01/02 10:59:09;;;;;;;20.17;11.00;;;6.10;99.90;;;;;;4962198;28;20615;-83
2021/01/02 11:01:54;;;;;;;24.77;12.02;;;6.10;99.90;;;;;;4977943;28;20082;-84
2021/01/02 11:04:21;;;;;;;;;;;6.10;99.90;;;;;;4948666;28;20034;-84
2021/01/02 11:06:50;;;;;;;23.02;12.90;;;6.30;99.90;;;;;;4960527;28;19910;-86
2021/01/02 11:09:18;;;;;;;24.02;11.45;;;6.30;99.90;;;;;;4944672;28;20495;-85
2021/01/02 11:11:44;;;;;;;20.52;10.77;;;6.40;99.90;;;;;;4960808;28;20541;-85
2021/01/02 11:14:11;;;;;;;23.23;11.15;;;6.50;99.90;;;;;;4944784;28;20063;-85
2021/01/02 11:16:39;;;;;;;21.23;9.90;;;6.50;99.90;;;;;;4960466;28;20049;-84
2021/01/02 11:19:12;;;;;;;15.30;8.45;;;6.50;99.90;;;;;;4960676;28;20031;-86
2021/01/02 11:21:39;;;;;;;22.08;9.05;;;6.60;99.90;;;;;;4960316;28;20089;-85
2021/01/02 11:24:06;;;;;;;17.50;9.57;;;6.60;99.90;;;;;;4960948;28;20093;-85
2021/01/02 11:26:33;;;;;;;20.45;9.88;;;6.80;99.90;;;;;;4960606;28;20058;-85
2021/01/02 11:28:58;;;;;;;19.92;9.13;;;6.80;99.90;;;;;;4945259;28;20055;-86
2021/01/02 11:31:33;;;;;;;19.88;7.03;;;6.90;99.90;;;;;;4980644;28;20508;-86
2021/01/02 11:33:59;;;;;;;24.10;6.78;;;6.90;99.90;;;;;;4978142;28;20038;-85
2021/01/02 11:36:25;;;;;;;14.38;6.18;;;6.90;99.90;;;;;;4962744;28;20035;-86
2021/01/02 11:38:51;;;;;;;14.98;7.20;;;6.90;99.90;;;;;;4961548;28;20401;-85
2021/01/02 11:41:20;;;;;;;16.15;6.60;;;6.90;99.90;;;;;;4960918;28;20030;-85
2021/01/02 11:43:46;;;;;;;19.35;7.70;;;6.80;99.90;;;;;;4978079;28;20022;-84
2021/01/02 11:46:13;;;;;;;18.35;8.18;;;6.90;99.90;;;;;;4977170;28;20038;-85
2021/01/02 11:48:40;;;;;;;19.00;6.88;;;6.90;99.90;;;;;;4974567;28;20038;-89
2021/01/02 11:51:12;;;;;;;11.48;6.00;;;7.00;99.90;;;;;;4943776;28;20147;-85
2021/01/02 11:53:38;;;;;;;15.40;6.97;;;7.00;99.90;;;;;;4959031;28;20054;-85
2021/01/02 11:56:05;;;;;;;17.52;6.10;;;7.20;99.90;;;;;;4943338;28;20487;-86
2021/01/02 11:58:32;;;;;;;10.52;5.72;;;7.20;99.90;;;;;;4961948;28;20476;-83
2021/01/02 12:00:58;;;;;;;14.30;5.80;;;7.50;99.90;;;;;;4943467;28;20082;-84
2021/01/02 12:03:24;;;;;;;14.43;5.10;;;7.90;99.90;;;;;;4950967;28;20031;-86
2021/01/02 12:05:49;;;;;;;20.17;5.20;;;8.30;99.90;;;;;;4964772;28;20077;-85
2021/01/02 12:08:15;;;;;;;11.10;4.30;;;8.50;99.90;;;;;;4965465;28;20477;-84
2021/01/02 12:10:43;;;;;;;15.90;5.35;;;9.00;99.90;;;;;;4962360;28;20035;-87
2021/01/02 12:13:08;;;;;;;12.30;4.30;;;9.00;99.90;;;;;;4945197;28;20089;-85
2021/01/02 12:15:34;;;;;;;11.50;4.80;;;8.70;99.90;;;;;;4929188;28;20031;-86
2021/01/02 12:18:00;;;;;;;14.23;3.80;;;8.40;99.90;;;;;;4943257;28;20046;-84
2021/01/02 12:20:25;;;;;;;8.65;2.97;;;8.20;99.90;;;;;;4927148;28;20505;-85
2021/01/02 12:22:51;;;;;;;11.55;2.83;;;8.20;99.90;;;;;;4942687;28;20122;-84
2021/01/02 12:25:17;;;;;;;8.95;3.17;;;8.30;99.90;;;;;;4942734;28;20142;-84
2021/01/02 12:27:42;;;;;;;9.13;2.45;;;8.20;99.90;;;;;;4943082;28;20466;-85
2021/01/02 12:30:09;;;;;;;3.28;1.48;;;7.90;99.90;;;;;;4943028;28;20030;-87
2021/01/02 12:32:34;;;;;;;5.68;1.40;;;7.60;99.90;;;;;;4976239;28;20031;-86
2021/01/02 12:35:00;;;;;;;5.75;1.65;;;7.40;99.90;;;;;;4943081;28;20404;-83
2021/01/02 12:37:26;;;;;;;6.13;1.55;;;7.30;99.90;;;;;;4959349;28;20089;-88
2021/01/02 12:39:52;;;;;;;4.57;1.33;;;7.10;99.90;;;;;;4943263;28;20026;-84
2021/01/02 12:42:17;;;;;;;7.25;1.27;;;7.00;99.90;;;;;;4976155;28;20022;-87
2021/01/02 12:44:47;;;;;;;6.90;2.42;;;6.80;99.90;;;;;;4958660;28;20034;-84
2021/01/02 12:47:15;;;;;;;8.52;2.20;;;6.60;99.90;;;;;;4943853;28;20095;-85
2021/01/02 12:49:46;;;;;;;2.08;1.20;;;6.50;99.90;;;;;;4944889;28;20034;-84
2021/01/02 12:52:11;;;;;;;3.03;1.98;;;6.30;99.90;;;;;;4962758;28;20103;-83
2021/01/02 12:54:45;;;;;;;4.65;1.38;;;6.20;99.90;;;;;;4942891;28;20039;-83
2021/01/02 12:57:11;;;;;;;3.83;1.20;;;6.10;99.90;;;;;;4958868;28;20030;-83
2021/01/02 12:59:37;;;;;;;1.67;1.17;;;6.10;99.90;;;;;;4943873;28;20134;-83
2021/01/02 13:02:10;;;;;;;3.25;1.27;;;6.00;99.90;;;;;;4944794;28;20046;-84
2021/01/02 13:04:38;;;;;;;3.17;1.15;;;5.90;99.90;;;;;;4975435;28;20030;-84